Time;durP1;ratioP1;P1;durP2;ratioP2;P2;SDS_P1;SDS_P2;PMS_P1;PMS_P2;Temp;Humidity;BMP_temperature;BMP_pressure;BME280_temperature;BME280_humidity;BME280_pressure;Samples;Min_cycle;Max_cycle;Signal;HPM_P1;HPM_P2
2020/12/05 00:01:15;;;;;;;24.20;12.10;;;;;;;6.82;76.05;98010.42;4303025;80;21293;-86
2020/12/05 00:07:22;;;;;;;23.47;12.65;;;;;;;6.86;75.78;98022.10;4360673;80;21630;-86
2020/12/05 00:13:24;;;;;;;18.27;9.78;;;;;;;6.91;75.67;98018.26;4353334;80;21167;-87
2020/12/05 00:19:26;;;;;;;15.50;9.38;;;;;;;7.00;75.55;98006.52;4348986;80;21328;-87
2020/12/05 00:25:29;;;;;;;19.42;10.60;;;;;;;7.10;75.30;98009.89;4351778;80;21182;-86
2020/12/05 00:31:31;;;;;;;21.85;12.03;;;;;;;7.18;75.33;98008.23;4357918;80;21801;-88
2020/12/05 00:37:34;;;;;;;22.82;11.63;;;;;;;7.18;74.96;98015.61;4351750;80;21631;-86
2020/12/05 00:43:37;;;;;;;20.57;10.88;;;;;;;7.11;75.19;98028.56;4350307;80;21197;-87
2020/12/05 00:49:38;;;;;;;20.80;11.38;;;;;;;7.05;74.86;98030.06;4346217;80;21207;-86
2020/12/05 00:55:40;;;;;;;20.35;10.95;;;;;;;6.94;74.95;98040.06;4350317;80;21357;-86
2020/12/05 01:01:41;;;;;;;19.60;10.38;;;;;;;6.90;75.33;98050.14;4348423;80;21203;-87
2020/12/05 01:07:43;;;;;;;16.97;10.03;;;;;;;6.94;75.22;98048.23;4333818;81;21168;-87
2020/12/05 01:13:48;;;;;;;18.20;9.95;;;;;;;6.98;75.17;98053.14;4336067;80;21219;-86
2020/12/05 01:19:52;;;;;;;14.03;8.53;;;;;;;7.08;75.20;98053.05;4341584;80;21167;-88
2020/12/05 01:25:54;;;;;;;16.27;9.80;;;;;;;7.33;75.01;98050.73;4341251;81;21213;-85
2020/12/05 01:31:56;;;;;;;16.95;9.38;;;;;;;7.47;74.55;98048.73;4337127;80;21170;-88
2020/12/05 01:37:57;;;;;;;15.23;8.70;;;;;;;7.56;73.81;98058.72;4334661;80;21215;-87
2020/12/05 01:43:59;;;;;;;16.32;9.23;;;;;;;7.64;73.78;98054.30;4335703;80;21195;-87
2020/12/05 01:50:00;;;;;;;16.23;9.28;;;;;;;7.66;73.92;98047.11;4338878;80;21724;-88
2020/12/05 01:56:02;;;;;;;12.95;8.05;;;;;;;7.70;73.77;98033.73;4340121;81;21225;-88
2020/12/05 02:02:05;;;;;;;18.12;8.93;;;;;;;7.72;73.81;98040.17;4330796;80;21643;-86
2020/12/05 02:08:14;;;;;;;15.45;9.05;;;;;;;7.71;73.77;98048.91;4334630;81;21227;-87
2020/12/05 02:14:19;;;;;;;15.55;8.75;;;;;;;7.67;73.68;98048.09;4335308;80;21091;-87
2020/12/05 02:20:22;;;;;;;13.13;7.12;;;;;;;7.63;73.41;98045.93;4331016;80;21329;-87
2020/12/05 02:26:26;;;;;;;13.55;8.63;;;;;;;7.72;73.70;98046.38;4337966;80;21166;-86
2020/12/05 02:32:27;;;;;;;14.33;9.05;;;;;;;7.83;73.49;98053.26;4204934;83;21203;-88
2020/12/05 02:39:02;;;;;;;15.23;9.13;;;;;;;7.78;73.64;98055.76;4193222;83;21219;-89
2020/12/05 02:45:08;;;;;;;17.25;9.93;;;;;;;7.63;73.65;98058.19;4258681;82;21253;-88
2020/12/05 02:51:10;;;;;;;17.63;9.10;;;;;;;7.44;73.81;98061.71;4173760;83;21674;-89
2020/12/05 02:57:11;;;;;;;23.98;13.00;;;;;;;7.29;73.82;98072.28;4216109;82;21239;-88
2020/12/05 03:03:13;;;;;;;20.20;11.55;;;;;;;7.06;73.97;98079.28;4162936;83;21217;-88
2020/12/05 03:09:15;;;;;;;22.15;11.60;;;;;;;6.84;74.15;98079.41;4190727;83;21163;-88
2020/12/05 03:15:16;;;;;;;24.12;10.98;;;;;;;6.64;74.36;98082.86;4183875;83;21202;-89
2020/12/05 03:21:18;;;;;;;17.02;9.28;;;;;;;6.35;74.45;98079.03;4251714;82;21199;-88
2020/12/05 03:27:20;;;;;;;19.37;11.35;;;;;;;6.22;75.51;98066.81;4169377;83;21202;-89
2020/12/05 03:33:23;;;;;;;21.95;12.90;;;;;;;6.13;75.25;98073.66;4196637;83;21227;-87
2020/12/05 03:39:24;;;;;;;19.87;11.18;;;;;;;5.87;75.01;98070.97;4181395;83;21255;-89
2020/12/05 03:45:28;;;;;;;15.98;9.95;;;;;;;5.68;75.45;98057.45;4189770;83;21502;-88
2020/12/05 03:51:30;;;;;;;20.97;11.57;;;;;;;5.63;75.65;98050.97;4166449;84;21190;-89
2020/12/05 03:57:32;;;;;;;20.72;12.50;;;;;;;5.55;75.97;98045.22;4181269;83;21207;-88
2020/12/05 04:03:34;;;;;;;20.88;11.95;;;;;;;5.52;76.16;98053.53;4158679;83;21218;-88
2020/12/05 04:09:39;;;;;;;19.87;11.03;;;;;;;5.35;75.98;98046.45;4135449;84;21746;-88
2020/12/05 04:15:41;;;;;;;21.33;12.03;;;;;;;5.26;76.59;98065.69;4121762;85;21200;-87
2020/12/05 04:21:42;;;;;;;24.25;12.30;;;;;;;5.32;76.73;98065.62;4160802;84;21199;-87
2020/12/05 04:27:44;;;;;;;22.30;12.73;;;;;;;5.38;77.22;98060.09;4145976;85;21192;-87
2020/12/05 04:33:46;;;;;;;17.48;11.18;;;;;;;5.75;77.87;98050.77;4137632;85;22280;-87
2020/12/05 04:39:47;;;;;;;17.17;8.68;;;;;;;6.25;77.34;98040.25;4134420;84;21728;-87
2020/12/05 04:45:50;;;;;;;25.88;11.78;;;;;;;6.75;76.63;98062.61;4128109;85;22286;-88
2020/12/05 04:51:55;;;;;;;28.12;16.07;;;;;;;6.86;76.37;98069.71;4146842;85;21196;-87
2020/12/05 04:57:59;;;;;;;24.02;15.00;;;;;;;6.28;76.45;98082.20;4130340;84;21221;-89
2020/12/05 05:04:02;;;;;;;22.13;11.25;;;;;;;5.99;76.58;98097.92;4223490;82;21166;-88
2020/12/05 05:10:13;;;;;;;21.87;11.97;;;;;;;5.74;77.00;98083.94;4233155;82;21158;-88
2020/12/05 05:16:14;;;;;;;19.70;11.55;;;;;;;5.58;77.23;98090.64;4340703;80;21164;-87
2020/12/05 05:22:22;;;;;;;19.77;11.68;;;;;;;5.47;77.43;98099.98;4328813;80;21304;-88
2020/12/05 05:28:34;;;;;;;17.87;10.28;;;;;;;5.11;77.11;98102.42;4340930;81;21531;-87
2020/12/05 05:34:37;;;;;;;21.62;12.07;;;;;;;4.99;77.61;98103.95;4340510;80;21355;-88
2020/12/05 05:40:39;;;;;;;28.05;12.93;;;;;;;4.81;77.88;98109.83;4341518;80;21147;-88
2020/12/05 05:46:44;;;;;;;29.00;15.23;;;;;;;4.62;77.69;98100.91;4336388;80;21156;-88
2020/12/05 05:52:58;;;;;;;20.17;10.58;;;;;;;4.42;78.76;98121.02;4179170;83;21266;-88
2020/12/05 05:59:01;;;;;;;25.10;14.18;;;;;;;4.48;78.94;98122.30;4335963;81;21726;-88
2020/12/05 06:05:04;;;;;;;26.15;14.47;;;;;;;4.58;79.48;98133.39;4335898;80;21226;-88
2020/12/05 06:11:12;;;;;;;35.73;17.07;;;;;;;4.58;78.66;98133.39;4335068;81;21186;-88
2020/12/05 06:17:18;;;;;;;24.20;12.73;;;;;;;4.23;79.04;98134.53;4334811;80;21714;-88
2020/12/05 06:23:47;;;;;;;23.60;13.40;;;;;;;4.49;79.88;98136.09;4347038;80;21790;-88
2020/12/05 06:29:51;;;;;;;25.65;13.13;;;;;;;4.64;79.56;98151.50;4322013;80;21347;-88
2020/12/05 06:35:53;;;;;;;23.35;12.65;;;;;;;4.70;79.88;98154.92;4339464;80;21186;-87
2020/12/05 06:48:24;;;;;;;29.75;16.70;;;;;;;4.74;80.54;98173.39;4465210;77;22609;-88
2020/12/05 06:54:54;;;;;;;26.85;15.68;;;;;;;4.84;80.61;98185.05;4403840;79;21186;-88
2020/12/05 07:00:57;;;;;;;28.38;14.50;;;;;;;4.95;80.37;98188.55;4401980;79;21300;-88
2020/12/05 07:07:05;;;;;;;27.45;14.38;;;;;;;4.86;80.52;98191.47;4412421;79;21331;-88
2020/12/05 07:13:16;;;;;;;25.37;12.95;;;;;;;4.78;80.35;98196.52;4395019;79;21712;-89
2020/12/05 07:19:19;;;;;;;27.55;16.12;;;;;;;4.72;80.78;98202.81;4404657;79;22126;-88
2020/12/05 07:25:22;;;;;;;28.02;13.95;;;;;;;4.78;80.89;98203.30;4367943;79;21310;-87
2020/12/05 07:31:23;;;;;;;19.67;12.23;;;;;;;4.85;81.41;98199.39;4405519;79;21324;-88
2020/12/05 07:37:29;;;;;;;24.90;13.72;;;;;;;4.96;81.73;98206.38;4405422;79;21326;-87
2020/12/05 07:43:31;;;;;;;23.67;12.60;;;;;;;5.47;81.60;98216.70;4410384;80;21182;-88
2020/12/05 07:49:33;;;;;;;22.93;12.45;;;;;;;5.84;81.35;98217.78;4394601;79;21768;-87
2020/12/05 07:55:34;;;;;;;18.52;10.10;;;;;;;6.14;81.05;98213.80;4397135;79;21352;-87
2020/12/05 08:02:05;;;;;;;20.77;11.83;;;;;;;6.71;80.73;98222.23;4410137;79;21138;-88
2020/12/05 08:08:06;;;;;;;25.68;14.90;;;;;;;6.84;80.52;98240.70;4402632;79;21165;-88
2020/12/05 08:14:11;;;;;;;34.60;18.37;;;;;;;6.62;80.18;98251.08;4242006;82;21195;-89
2020/12/05 08:20:25;;;;;;;26.20;15.63;;;;;;;6.25;80.12;98261.75;4245419;82;21224;-88
2020/12/05 08:26:30;;;;;;;28.10;16.87;;;;;;;6.18;80.86;98268.45;4238443;82;21279;-88
2020/12/05 08:32:32;;;;;;;25.72;15.00;;;;;;;6.33;81.01;98263.44;4240118;82;21203;-87
2020/12/05 08:38:34;;;;;;;25.57;15.10;;;;;;;6.46;81.05;98263.23;4272136;81;21197;-87
2020/12/05 08:44:36;;;;;;;37.20;18.07;;;;;;;6.77;80.40;98273.80;4264910;82;21705;-87
2020/12/05 08:50:37;;;;;;;27.13;14.43;;;;;;;7.04;80.57;98276.72;4213721;82;21184;-88
2020/12/05 08:56:40;;;;;;;46.60;26.35;;;;;;;7.42;79.91;98277.80;4094105;85;21195;-87
2020/12/05 09:02:41;;;;;;;33.60;20.52;;;;;;;7.66;79.46;98271.83;4206848;83;21174;-86
2020/12/05 09:08:44;;;;;;;29.20;16.85;;;;;;;7.99;77.90;98265.77;4204993;82;21686;-88
2020/12/05 09:14:47;;;;;;;32.45;17.80;;;;;;;8.34;77.46;98263.97;4210864;82;21324;-85
2020/12/05 09:20:50;;;;;;;27.52;14.98;;;;;;;8.46;77.57;98266.97;4217102;84;21204;-84
2020/12/05 09:26:54;;;;;;;33.40;17.80;;;;;;;8.56;77.53;98260.82;4211620;84;21671;-84
2020/12/05 09:32:56;;;;;;;45.83;27.50;;;;;;;8.64;77.06;98263.80;4200790;82;21196;-85
2020/12/05 09:38:57;;;;;;;55.17;28.10;;;;;;;8.76;76.70;98257.45;4213789;83;21374;-86
2020/12/05 09:44:59;;;;;;;31.42;14.68;;;;;;;8.86;76.55;98254.59;4254740;81;21214;-85
2020/12/05 09:51:00;;;;;;;20.08;11.28;;;;;;;8.91;76.33;98254.24;4359912;80;22048;-86
2020/12/05 09:57:06;;;;;;;21.23;12.10;;;;;;;9.30;73.12;98249.76;4358421;81;21344;-86
2020/12/05 10:03:07;;;;;;;21.70;11.55;;;;;;;9.62;71.37;98230.14;4199536;83;22343;-86
2020/12/05 10:09:09;;;;;;;26.97;14.95;;;;;;;9.84;72.05;98239.95;4212142;84;21527;-86
2020/12/05 10:15:14;;;;;;;24.87;13.38;;;;;;;9.90;71.12;98239.77;4207989;82;21151;-88
2020/12/05 10:21:17;;;;;;;16.12;9.35;;;;;;;10.04;70.60;98243.89;4203105;83;21190;-88
2020/12/05 10:27:19;;;;;;;19.10;11.93;;;;;;;10.13;70.95;98239.45;4204063;83;21188;-88
2020/12/05 10:33:20;;;;;;;22.40;14.95;;;;;;;10.22;71.66;98252.15;4211541;82;21216;-88
2020/12/05 10:39:23;;;;;;;32.88;21.23;;;;;;;10.20;71.81;98249.02;4206899;83;21276;-89
2020/12/05 10:45:25;;;;;;;27.10;15.28;;;;;;;10.24;71.74;98248.44;4269909;81;21356;-88
2020/12/05 10:51:26;;;;;;;26.00;14.78;;;;;;;10.23;71.95;98256.44;4362521;79;21166;-89
2020/12/05 10:57:28;;;;;;;27.73;16.00;;;;;;;10.22;72.00;98262.52;4364105;79;21170;-89
2020/12/05 11:03:29;;;;;;;29.37;16.50;;;;;;;10.28;72.31;98267.00;4369300;79;21143;-89
2020/12/05 11:09:31;;;;;;;40.00;24.57;;;;;;;10.28;72.33;98252.73;4360728;79;21662;-90
2020/12/05 11:15:32;;;;;;;38.85;23.62;;;;;;;10.25;72.49;98248.63;4207929;82;21530;-89
2020/12/05 11:21:34;;;;;;;29.85;18.87;;;;;;;10.14;72.63;98259.57;4353652;80;21195;-89
2020/12/05 11:27:35;;;;;;;36.15;19.70;;;;;;;10.05;72.90;98267.92;4363534;80;21236;-88
2020/12/05 11:33:37;;;;;;;31.60;18.77;;;;;;;9.99;73.07;98264.02;4350838;79;21140;-88
2020/12/05 11:39:39;;;;;;;31.35;18.75;;;;;;;9.89;73.00;98268.86;4352495;80;21226;-88
2020/12/05 11:45:40;;;;;;;27.60;15.35;;;;;;;9.88;73.02;98276.27;4368864;79;21344;-88
2020/12/05 11:51:42;;;;;;;24.40;15.60;;;;;;;9.92;72.90;98276.28;4254245;82;21229;-88
2020/12/05 11:57:44;;;;;;;24.95;15.75;;;;;;;10.05;72.72;98276.92;4228681;83;22038;-88
2020/12/05 12:03:45;;;;;;;23.73;14.30;;;;;;;10.15;72.40;98278.14;4225653;82;21174;-88
2020/12/05 12:09:47;;;;;;;23.52;13.53;;;;;;;10.21;72.38;98288.28;4227497;83;21173;-89
2020/12/05 12:15:48;;;;;;;17.25;12.05;;;;;;;10.29;72.20;98293.20;4229782;82;21170;-88
2020/12/05 12:21:50;;;;;;;17.32;10.30;;;;;;;10.34;71.88;98303.73;4228325;83;21332;-89
2020/12/05 12:27:51;;;;;;;18.15;11.40;;;;;;;10.37;71.98;98298.84;4227141;82;21210;-90
2020/12/05 12:33:53;;;;;;;21.80;14.33;;;;;;;10.39;71.82;98301.41;4219741;82;21173;-89
2020/12/05 12:39:55;;;;;;;21.45;14.20;;;;;;;10.41;71.01;98305.91;4259658;82;21661;-88
2020/12/05 12:45:56;;;;;;;23.15;14.78;;;;;;;10.41;71.26;98305.91;4224131;82;21162;-89
2020/12/05 12:51:58;;;;;;;29.70;15.95;;;;;;;10.39;71.23;98320.55;4205890;82;21224;-88
2020/12/05 12:58:09;;;;;;;32.95;17.50;;;;;;;10.40;71.19;98311.17;4205149;83;21651;-89
2020/12/05 13:04:03;;;;;;;35.23;20.17;;;;;;;10.43;71.39;98327.41;4206010;83;21400;-89
2020/12/05 13:10:05;;;;;;;40.20;22.77;;;;;;;10.42;71.14;98338.93;4211223;82;21368;-88
2020/12/05 13:16:06;;;;;;;31.15;19.67;;;;;;;10.42;71.12;98342.24;4199447;82;21381;-89
2020/12/05 13:22:08;;;;;;;37.25;20.90;;;;;;;10.41;71.18;98351.05;4206008;83;21348;-89
2020/12/05 13:28:10;;;;;;;28.07;16.35;;;;;;;10.34;71.17;98334.61;4200182;83;21163;-88
2020/12/05 13:34:12;;;;;;;32.20;17.42;;;;;;;10.37;71.18;98345.36;4200327;82;21598;-89
2020/12/05 13:40:14;;;;;;;30.15;17.23;;;;;;;10.35;70.88;98346.35;4229405;82;21715;-88
2020/12/05 13:46:15;;;;;;;32.35;16.90;;;;;;;10.35;70.48;98352.58;4235260;83;21295;-88
2020/12/05 13:52:17;;;;;;;32.55;17.57;;;;;;;10.30;70.73;98360.41;4235526;82;21163;-89
2020/12/05 13:58:18;;;;;;;23.42;13.70;;;;;;;10.27;70.59;98368.02;4188181;82;21665;-88
2020/12/05 14:04:20;;;;;;;26.87;15.75;;;;;;;10.24;70.76;98374.27;4162805;83;21323;-87
2020/12/05 14:10:22;;;;;;;23.90;13.62;;;;;;;10.20;70.36;98381.66;4171278;83;21234;-89
2020/12/05 14:16:23;;;;;;;21.12;11.35;;;;;;;10.19;70.52;98384.21;4173584;83;21227;-89
2020/12/05 14:22:25;;;;;;;23.95;12.93;;;;;;;10.24;69.66;98389.31;4160789;83;21202;-88
2020/12/05 14:28:27;;;;;;;20.55;11.88;;;;;;;10.26;69.83;98395.16;4162521;83;21212;-85
2020/12/05 14:34:29;;;;;;;18.40;10.60;;;;;;;10.32;69.21;98397.13;4165822;84;21207;-87
2020/12/05 14:40:42;;;;;;;17.90;11.30;;;;;;;10.45;67.65;98413.97;4437036;78;23039;-88
2020/12/05 14:46:45;;;;;;;26.23;16.17;;;;;;;10.42;67.42;98421.59;4385539;79;21332;-87
2020/12/05 14:52:46;;;;;;;32.42;18.40;;;;;;;10.41;67.30;98426.88;4388784;79;21747;-87
2020/12/05 14:58:48;;;;;;;32.58;19.32;;;;;;;10.33;67.23;98434.86;4387693;79;21194;-86
2020/12/05 15:04:50;;;;;;;35.00;20.70;;;;;;;10.26;67.50;98432.09;4386852;79;21324;-88
2020/12/05 15:10:53;;;;;;;31.85;18.50;;;;;;;10.18;67.87;98442.83;4363365;79;21507;-88
2020/12/05 15:16:54;;;;;;;29.05;15.93;;;;;;;10.19;68.12;98447.91;4387494;79;21208;-88
2020/12/05 15:22:56;;;;;;;24.27;15.05;;;;;;;9.98;68.45;98451.09;4390684;79;21200;-87
2020/12/05 15:28:57;;;;;;;33.63;19.95;;;;;;;9.63;68.77;98458.55;4388042;79;21202;-88
2020/12/05 15:34:59;;;;;;;24.32;15.50;;;;;;;9.40;69.02;98457.41;4379066;79;21188;-88
2020/12/05 15:41:04;;;;;;;31.20;18.82;;;;;;;9.09;69.43;98462.04;4359697;80;21184;-87
2020/12/05 15:47:06;;;;;;;46.55;23.70;;;;;;;8.97;69.85;98467.00;4347055;80;21312;-87
2020/12/05 15:53:08;;;;;;;43.70;22.02;;;;;;;8.81;70.03;98481.47;4357956;80;21154;-88
2020/12/05 15:59:10;;;;;;;55.58;29.75;;;;;;;8.65;70.31;98479.54;4361762;80;21177;-87
2020/12/05 16:05:11;;;;;;;38.73;21.17;;;;;;;8.51;70.41;98472.00;4357845;80;21170;-88
2020/12/05 16:11:13;;;;;;;46.60;23.38;;;;;;;8.12;70.52;98474.03;4364341;80;21344;-88
2020/12/05 16:17:14;;;;;;;81.65;39.92;;;;;;;7.97;71.42;98480.67;4358382;80;21194;-88
2020/12/05 16:29:46;;;;;;;125.47;59.50;;;;;;;7.75;71.95;98474.72;4418535;77;23002;-88
2020/12/05 16:35:59;;;;;;;;;;;;;;;;;;;;;
2020/12/05 16:42:18;;;;;;;88.10;53.50;;;;;;;7.49;72.47;98470.66;4537299;76;28590;-88
2020/12/05 16:48:21;;;;;;;66.90;36.58;;;;;;;7.57;72.82;98472.34;4489134;77;21204;-89
2020/12/05 16:54:26;;;;;;;79.10;39.60;;;;;;;7.42;72.86;98485.52;4479726;78;21668;-87
2020/12/05 17:00:51;;;;;;;;;;;;;;;;;;;;;
2020/12/05 17:07:19;;;;;;;64.62;32.95;;;;;;;7.42;73.12;98483.39;4580391;75;23444;-87
2020/12/05 17:13:22;;;;;;;76.28;36.05;;;;;;;7.04;73.41;98474.81;4461077;78;21140;-87
2020/12/05 17:19:27;;;;;;;99.32;44.42;;;;;;;6.87;74.09;98479.95;4490924;78;21172;-87
2020/12/05 17:25:38;;;;;;;123.20;54.15;;;;;;;6.85;74.62;98488.48;4491318;77;21167;-88
2020/12/05 17:38:12;;;;;;;96.90;47.58;;;;;;;6.72;74.88;98465.90;4579153;75;23481;-87
2020/12/05 17:44:21;;;;;;;93.42;49.73;;;;;;;6.47;74.97;98468.74;4488243;77;21189;-87
2020/12/05 17:50:24;;;;;;;98.87;43.75;;;;;;;6.34;75.68;98480.34;4411516;78;21676;-88
2020/12/05 17:56:28;;;;;;;88.47;45.55;;;;;;;6.26;75.66;98480.75;4422940;78;21176;-87
2020/12/05 18:02:34;;;;;;;98.07;53.87;;;;;;;6.11;75.41;98489.78;4415021;79;21831;-87
2020/12/05 18:09:13;;;;;;;101.80;53.83;;;;;;;6.01;76.20;98484.14;4398621;77;23821;-88
2020/12/05 18:15:20;;;;;;;105.92;54.53;;;;;;;5.96;76.37;98497.44;4322871;80;21129;-88
2020/12/05 18:27:52;;;;;;;107.40;54.67;;;;;;;5.91;77.21;98501.79;4523603;76;22971;-87
2020/12/05 18:33:57;;;;;;;111.00;56.50;;;;;;;5.85;76.87;98522.79;4471985;78;21769;-88
2020/12/05 18:40:03;;;;;;;107.20;54.77;;;;;;;5.78;77.90;98509.80;4478328;78;21196;-87
2020/12/05 18:46:09;;;;;;;139.18;65.40;;;;;;;6.01;77.76;98501.20;4479395;78;21590;-87
2020/12/05 18:52:19;;;;;;;100.00;47.87;;;;;;;5.82;77.22;98515.35;4478845;78;21133;-87
2020/12/05 18:59:00;;;;;;;122.22;58.42;;;;;;;5.62;77.36;98522.63;4505487;76;23609;-89
2020/12/05 19:11:25;;;;;;;105.83;49.15;;;;;;;5.55;78.42;98517.05;4540019;75;22982;-87
2020/12/05 19:17:27;;;;;;;90.32;45.15;;;;;;;5.53;78.34;98528.82;4481443;77;21156;-87
2020/12/05 19:23:30;;;;;;;98.58;49.67;;;;;;;5.22;77.68;98534.84;4490324;77;21145;-88
2020/12/05 19:29:38;;;;;;;90.42;45.40;;;;;;;5.06;78.34;98540.86;4497160;77;21301;-87
2020/12/05 19:35:45;;;;;;;103.83;51.23;;;;;;;4.93;78.62;98533.36;4496621;77;21261;-87
2020/12/05 19:48:24;;;;;;;128.72;64.55;;;;;;;5.03;79.54;98522.56;4426330;78;23441;-87
2020/12/05 19:54:26;;;;;;;104.58;49.15;;;;;;;4.88;79.31;98528.75;4358283;80;21167;-89
2020/12/05 20:00:27;;;;;;;84.50;39.67;;;;;;;4.72;79.05;98538.22;4345793;80;21165;-87
2020/12/05 20:12:48;;;;;;;84.55;43.83;;;;;;;4.72;80.51;98521.39;4516970;77;24583;-88
2020/12/05 20:18:50;;;;;;;80.62;38.08;;;;;;;4.73;80.73;98534.36;4481271;78;21155;-89
2020/12/05 20:31:12;;;;;;;62.03;32.00;;;;;;;4.99;80.79;98524.38;4447609;78;23157;-88
2020/12/05 20:37:25;;;;;;;77.05;35.70;;;;;;;5.15;80.68;98521.91;4379975;80;21198;-88
2020/12/05 20:43:29;;;;;;;82.67;42.60;;;;;;;5.25;80.45;98513.22;4375316;80;21378;-88
2020/12/05 20:49:36;;;;;;;82.95;40.05;;;;;;;5.22;80.52;98510.42;4372298;80;21199;-89
2020/12/05 20:55:34;;;;;;;83.00;41.50;;;;;;;5.16;80.40;98513.19;4377083;80;21154;-88
2020/12/05 21:01:37;;;;;;;77.42;40.48;;;;;;;5.03;80.53;98513.07;4381063;80;21159;-87
2020/12/05 21:07:52;;;;;;;83.80;43.52;;;;;;;5.00;80.49;98513.74;4520035;77;23300;-87
2020/12/05 21:14:04;;;;;;;89.32;46.42;;;;;;;4.87;80.92;98513.03;4343072;78;9999594;-87
2020/12/05 21:20:07;;;;;;;83.03;42.80;;;;;;;4.85;81.14;98507.95;4469538;78;21341;-88
2020/12/05 21:26:13;;;;;;;67.60;31.30;;;;;;;4.81;80.47;98516.59;4476006;78;21161;-88
2020/12/05 21:32:15;;;;;;;95.77;48.35;;;;;;;4.70;81.01;98518.23;4465029;78;21304;-87
2020/12/05 21:38:18;;;;;;;108.15;51.70;;;;;;;4.36;80.74;98526.19;4474183;78;21225;-88
2020/12/05 21:44:23;;;;;;;94.28;47.43;;;;;;;4.28;81.09;98529.28;4475136;78;21185;-87
2020/12/05 21:50:24;;;;;;;93.50;45.50;;;;;;;4.21;81.25;98538.54;4468538;78;21137;-88
2020/12/05 21:56:29;;;;;;;94.83;44.10;;;;;;;4.17;81.36;98534.95;4473756;78;21169;-87
2020/12/05 22:02:34;;;;;;;84.90;41.65;;;;;;;4.14;81.20;98523.45;4476275;77;21197;-86
2020/12/05 22:08:36;;;;;;;114.42;55.70;;;;;;;3.97;80.92;98523.73;4463598;78;21161;-87
2020/12/05 22:14:38;;;;;;;96.82;50.30;;;;;;;3.77;81.41;98521.98;4458679;78;21151;-87
2020/12/05 22:20:43;;;;;;;94.42;47.43;;;;;;;3.71;81.85;98533.38;4465857;78;21602;-87
2020/12/05 22:26:45;;;;;;;101.47;49.33;;;;;;;3.72;81.94;98534.39;4464834;78;21762;-88
2020/12/05 22:32:48;;;;;;;98.82;46.25;;;;;;;3.78;82.56;98534.38;4459902;78;21307;-87
2020/12/05 22:38:54;;;;;;;94.77;43.90;;;;;;;3.82;82.14;98519.60;4458203;78;21232;-87
2020/12/05 22:44:55;;;;;;;102.80;49.27;;;;;;;3.72;82.78;98509.23;4469160;78;21617;-87
2020/12/05 22:50:59;;;;;;;103.55;50.55;;;;;;;3.80;82.98;98517.80;4462864;78;21971;-87
2020/12/05 22:57:05;;;;;;;103.62;46.33;;;;;;;3.75;82.61;98516.11;4456798;78;21786;-88
2020/12/05 23:03:07;;;;;;;110.40;48.68;;;;;;;3.65;82.81;98519.28;4462849;78;21328;-87
2020/12/05 23:09:15;;;;;;;109.03;48.83;;;;;;;3.78;83.18;98522.20;4445943;78;22307;-87
2020/12/05 23:15:19;;;;;;;94.13;44.23;;;;;;;3.79;82.85;98525.70;4431738;78;21122;-87
2020/12/05 23:21:25;;;;;;;92.42;47.48;;;;;;;3.62;82.83;98525.38;4446850;78;21193;-87
2020/12/05 23:27:31;;;;;;;96.20;46.13;;;;;;;3.52;82.91;98522.34;4447299;78;21161;-87
2020/12/05 23:39:58;;;;;;;87.47;41.33;;;;;;;3.14;83.26;98523.49;4421498;78;22097;-86
2020/12/05 23:46:03;;;;;;;84.30;40.03;;;;;;;3.15;83.17;98526.41;4423436;78;21193;-86
2020/12/05 23:52:06;;;;;;;;;;;;;;;3.08;83.31;98519.98;4450618;78;21308;-87
2020/12/05 23:58:10;;;;;;;77.47;38.48;;;;;;;2.85;83.23;98526.95;4449905;78;20191;-87
